createdAt,value
2018-01-21T00:00:10.673Z,2.87
2018-01-21T00:01:10.247Z,2.87
2018-01-21T00:02:10.717Z,2.87
2018-01-21T00:03:11.319Z,2.94
2018-01-21T00:04:10.606Z,2.81
2018-01-21T00:05:10.487Z,2.87
2018-01-21T00:06:11.872Z,2.81
2018-01-21T00:07:10.622Z,2.81
2018-01-21T00:08:11.083Z,2.81
2018-01-21T00:09:10.279Z,2.81
2018-01-21T00:10:10.745Z,2.81
2018-01-21T00:11:11.055Z,2.81
2018-01-21T00:12:10.742Z,2.81
2018-01-21T00:13:10.505Z,2.81
2018-01-21T00:14:11.674Z,2.81
2018-01-21T00:15:10.512Z,2.81
2018-01-21T00:16:11.291Z,2.81
2018-01-21T00:17:10.963Z,2.81
2018-01-21T00:18:13.738Z,2.81
2018-01-21T00:19:10.655Z,2.81
2018-01-21T00:20:11.176Z,2.87
2018-01-21T00:21:10.723Z,2.87
2018-01-21T00:22:10.517Z,2.94
2018-01-21T00:23:10.722Z,2.87
2018-01-21T00:24:10.972Z,2.87
2018-01-21T00:25:11.630Z,2.87
2018-01-21T00:26:11.216Z,2.81
2018-01-21T00:27:11.063Z,2.81
2018-01-21T00:28:10.969Z,2.81
2018-01-21T00:29:10.859Z,2.87
2018-01-21T00:30:10.581Z,2.87
2018-01-21T00:31:10.935Z,2.87
2018-01-21T00:32:11.559Z,2.87
2018-01-21T00:34:11.522Z,2.81
2018-01-21T00:35:10.985Z,2.81
2018-01-21T00:36:12.566Z,2.81
2018-01-21T00:39:13.920Z,2.81
2018-01-21T00:40:10.578Z,2.81
2018-01-21T00:41:10.936Z,2.81
2018-01-21T00:42:10.848Z,2.81
2018-01-21T00:43:10.699Z,2.81
2018-01-21T00:44:10.454Z,2.81
2018-01-21T00:45:10.509Z,2.75
2018-01-21T00:46:10.776Z,2.81
2018-01-21T00:47:10.415Z,2.81
2018-01-21T00:48:10.433Z,2.81
2018-01-21T00:49:10.989Z,2.75
2018-01-21T00:50:10.669Z,2.75
2018-01-21T00:51:12.403Z,2.75
2018-01-21T00:52:10.552Z,2.81
2018-01-21T00:53:10.483Z,2.75
2018-01-21T00:54:10.605Z,2.75
2018-01-21T00:55:10.814Z,2.81
2018-01-21T00:56:10.626Z,2.75
2018-01-21T00:57:11.272Z,2.81
2018-01-21T01:00:11.769Z,2.81
2018-01-21T01:01:10.729Z,2.81
2018-01-21T01:02:10.542Z,2.81
2018-01-21T01:04:11.734Z,2.87
2018-01-21T01:05:10.538Z,2.87
2018-01-21T01:06:10.738Z,2.81
2018-01-21T01:07:10.757Z,2.81
2018-01-21T01:08:10.553Z,2.81
2018-01-21T01:09:10.623Z,2.87
2018-01-21T01:10:10.569Z,2.87
2018-01-21T01:11:10.350Z,2.87
2018-01-21T01:12:11.578Z,2.87
2018-01-21T01:13:10.638Z,2.81
2018-01-21T01:14:11.154Z,2.81
2018-01-21T01:15:11.203Z,2.81
2018-01-21T01:16:10.475Z,2.81
2018-01-21T01:17:10.596Z,2.87
2018-01-21T01:18:11.412Z,2.81
2018-01-21T01:19:10.461Z,2.75
2018-01-21T01:20:10.582Z,2.75
2018-01-21T01:21:10.649Z,2.75
2018-01-21T01:22:10.587Z,2.75
2018-01-21T01:23:11.507Z,2.75
2018-01-21T01:24:10.789Z,2.75
2018-01-21T01:25:10.653Z,2.75
2018-01-21T01:26:11.344Z,2.75
2018-01-21T01:27:10.633Z,2.75
2018-01-21T01:28:10.727Z,2.75
2018-01-21T01:29:10.587Z,2.69
2018-01-21T01:30:11.375Z,2.69
2018-01-21T01:31:10.767Z,2.69
2018-01-21T01:32:10.427Z,2.62
2018-01-21T01:33:10.948Z,2.69
2018-01-21T01:34:11.388Z,2.69
2018-01-21T01:35:10.826Z,2.69
2018-01-21T01:36:11.288Z,2.69
2018-01-21T01:37:10.650Z,2.75
2018-01-21T01:38:10.639Z,2.69
2018-01-21T01:39:12.164Z,2.75
2018-01-21T01:40:11.151Z,2.75
2018-01-21T01:41:10.423Z,2.75
2018-01-21T01:42:10.529Z,2.75
2018-01-21T01:43:10.656Z,2.75
2018-01-21T01:44:10.875Z,2.75
2018-01-21T01:45:10.749Z,2.75
2018-01-21T01:46:10.495Z,2.75
2018-01-21T01:47:10.874Z,2.75
2018-01-21T01:48:10.595Z,2.75
2018-01-21T01:49:10.654Z,2.75
2018-01-21T01:50:10.748Z,2.75
2018-01-21T01:51:10.563Z,2.75
2018-01-21T01:52:10.453Z,2.75
2018-01-21T01:53:11.111Z,2.75
2018-01-21T01:54:10.744Z,2.75
2018-01-21T01:55:10.336Z,2.81
2018-01-21T01:56:10.460Z,2.81
2018-01-21T01:57:10.590Z,2.81
2018-01-21T01:58:10.619Z,2.75
2018-01-21T01:59:10.826Z,2.75
2018-01-21T02:00:10.861Z,2.75
2018-01-21T02:01:11.489Z,2.75
2018-01-21T02:02:11.027Z,2.75
2018-01-21T02:03:11.064Z,2.75
2018-01-21T02:04:10.770Z,2.75
2018-01-21T02:05:10.960Z,2.75
2018-01-21T02:06:10.378Z,2.75
2018-01-21T02:07:10.648Z,2.75
2018-01-21T02:08:10.678Z,2.75
2018-01-21T02:09:10.850Z,2.81
2018-01-21T02:10:10.927Z,2.75
2018-01-21T02:11:10.446Z,2.75
2018-01-21T02:15:12.142Z,2.75
2018-01-21T02:16:10.712Z,2.75
2018-01-21T02:18:39.125Z,2.75
2018-01-21T02:19:10.521Z,2.75
2018-01-21T02:20:11.363Z,2.75
2018-01-21T02:21:10.732Z,2.81
2018-01-21T02:22:10.600Z,2.81
2018-01-21T02:23:10.753Z,2.75
2018-01-21T02:24:10.647Z,2.81
2018-01-21T02:25:11.750Z,2.75
2018-01-21T02:26:11.279Z,2.81
2018-01-21T02:27:10.435Z,2.81
2018-01-21T02:28:10.599Z,2.81
2018-01-21T02:29:10.690Z,2.87
2018-01-21T02:30:10.779Z,2.87
2018-01-21T02:31:10.738Z,2.87
2018-01-21T02:32:11.049Z,2.87
2018-01-21T02:33:10.646Z,2.87
2018-01-21T02:34:10.718Z,2.87
2018-01-21T02:35:10.628Z,2.87
2018-01-21T02:36:10.531Z,2.87
2018-01-21T02:37:10.675Z,2.94
2018-01-21T02:38:10.757Z,2.94
2018-01-21T02:39:11.046Z,2.94
2018-01-21T02:40:11.482Z,2.94
2018-01-21T02:41:10.804Z,2.94
2018-01-21T02:42:10.915Z,2.94
2018-01-21T02:43:10.782Z,2.94
2018-01-21T02:44:10.813Z,2.94
2018-01-21T02:46:11.269Z,2.94
2018-01-21T02:47:10.755Z,2.94
2018-01-21T02:48:10.478Z,2.94
2018-01-21T02:49:10.566Z,3
2018-01-21T02:50:10.862Z,2.94
2018-01-21T02:51:10.934Z,2.94
2018-01-21T02:52:10.988Z,2.94
2018-01-21T02:53:10.712Z,2.94
2018-01-21T02:54:10.718Z,2.94
2018-01-21T02:55:10.851Z,2.87
2018-01-21T02:56:10.788Z,2.94
2018-01-21T02:57:11.974Z,2.94
2018-01-21T02:58:11.989Z,2.94
2018-01-21T02:59:10.737Z,2.94
2018-01-21T03:00:10.964Z,2.87
2018-01-21T03:01:10.745Z,2.94
2018-01-21T03:02:11.914Z,2.87
2018-01-21T03:03:10.632Z,2.87
2018-01-21T03:04:10.772Z,2.87
2018-01-21T03:05:10.716Z,2.81
2018-01-21T03:06:10.713Z,2.81
2018-01-21T03:07:10.717Z,2.81
2018-01-21T03:08:11.550Z,2.81
2018-01-21T03:09:10.694Z,2.81
2018-01-21T03:10:11.081Z,2.81
2018-01-21T03:11:10.826Z,2.75
2018-01-21T03:12:11.121Z,2.75
2018-01-21T03:13:10.709Z,2.87
2018-01-21T03:14:11.747Z,2.81
2018-01-21T03:21:10.740Z,2.81
2018-01-21T03:22:10.748Z,2.81
2018-01-21T03:23:11.196Z,2.81
2018-01-21T03:24:10.824Z,2.81
2018-01-21T03:25:10.865Z,2.81
2018-01-21T03:26:10.679Z,2.87
2018-01-21T03:27:10.907Z,2.87
2018-01-21T03:28:10.906Z,2.87
2018-01-21T03:29:10.793Z,2.87
2018-01-21T03:30:10.809Z,2.87
2018-01-21T03:31:10.963Z,2.87
2018-01-21T03:32:10.808Z,2.81
2018-01-21T03:33:11.437Z,2.94
2018-01-21T03:34:11.040Z,2.87
2018-01-21T03:35:10.791Z,2.87
2018-01-21T03:36:10.824Z,2.87
2018-01-21T03:37:10.716Z,2.94
2018-01-21T03:38:10.616Z,2.87
2018-01-21T03:39:10.920Z,2.94
2018-01-21T03:40:10.833Z,2.94
2018-01-21T03:42:11.135Z,2.87
2018-01-21T03:43:11.038Z,3
2018-01-21T03:44:11.288Z,2.94
2018-01-21T03:45:11.257Z,2.94
2018-01-21T03:46:10.646Z,2.94
2018-01-21T03:47:11.061Z,2.94
2018-01-21T03:48:10.533Z,2.94
2018-01-21T03:49:10.995Z,2.94
2018-01-21T03:50:10.846Z,2.94
2018-01-21T03:51:10.996Z,2.94
2018-01-21T03:52:10.854Z,2.94
2018-01-21T03:53:10.943Z,2.94
2018-01-21T03:54:10.581Z,3
2018-01-21T03:55:11.048Z,2.94
2018-01-21T03:56:17.798Z,3
2018-01-21T03:57:10.837Z,2.94
2018-01-21T03:59:11.351Z,3
2018-01-21T04:00:10.889Z,3.06
2018-01-21T04:01:11.037Z,3
2018-01-21T04:02:11.007Z,3
2018-01-21T04:03:11.010Z,3.06
2018-01-21T04:04:11.090Z,3
2018-01-21T04:05:10.796Z,3
2018-01-21T04:06:11.017Z,3.06
2018-01-21T04:07:10.947Z,3.06
2018-01-21T04:08:10.861Z,3
2018-01-21T04:09:10.762Z,3
2018-01-21T04:10:15.107Z,3
2018-01-21T04:11:11.193Z,3
2018-01-21T04:12:10.974Z,2.94
2018-01-21T04:13:11.253Z,3
2018-01-21T04:14:11.756Z,3
2018-01-21T04:15:10.800Z,3
2018-01-21T04:16:10.680Z,3
2018-01-21T04:17:11.614Z,3
2018-01-21T04:18:10.999Z,3
2018-01-21T04:19:11.681Z,3
2018-01-21T04:20:10.750Z,3
2018-01-21T04:21:11.323Z,2.94
2018-01-21T04:22:10.730Z,3
2018-01-21T04:23:11.812Z,2.94
2018-01-21T04:24:11.041Z,3
2018-01-21T04:25:10.895Z,3
2018-01-21T04:26:11.032Z,3.06
2018-01-21T04:27:10.770Z,3
2018-01-21T04:28:10.870Z,3
2018-01-21T04:29:11.049Z,2.94
2018-01-21T04:30:10.887Z,3
2018-01-21T04:31:10.987Z,2.94
2018-01-21T04:32:12.609Z,2.94
2018-01-21T04:33:11.011Z,2.94
2018-01-21T04:34:10.782Z,2.94
2018-01-21T04:35:11.245Z,3
2018-01-21T04:36:10.953Z,3
2018-01-21T04:37:10.866Z,3
2018-01-21T04:38:10.900Z,2.94
2018-01-21T04:39:10.947Z,2.94
2018-01-21T04:40:11.101Z,2.94
2018-01-21T04:41:10.869Z,2.94
2018-01-21T04:42:10.924Z,2.94
2018-01-21T04:43:11.109Z,3
2018-01-21T04:44:11.165Z,3
2018-01-21T04:45:11.177Z,2.94
2018-01-21T04:46:11.108Z,3
2018-01-21T04:47:11.167Z,3
2018-01-21T04:48:10.928Z,3
2018-01-21T04:49:10.992Z,3
2018-01-21T04:50:10.942Z,3
2018-01-21T04:51:10.995Z,3
2018-01-21T04:52:11.004Z,3
2018-01-21T04:53:11.030Z,3
2018-01-21T04:54:11.095Z,3
2018-01-21T04:57:11.021Z,3
2018-01-21T04:58:10.854Z,3
2018-01-21T04:59:10.868Z,3
2018-01-21T05:00:10.886Z,3
2018-01-21T05:01:10.061Z,3
2018-01-21T05:02:09.931Z,3
2018-01-21T05:03:09.814Z,2.94
2018-01-21T05:04:10.726Z,3
2018-01-21T05:05:10.682Z,3
2018-01-21T05:06:10.733Z,3
2018-01-21T05:07:09.844Z,3
2018-01-21T05:08:09.897Z,2.94
2018-01-21T05:09:11.044Z,3
2018-01-21T05:10:09.863Z,2.94
2018-01-21T05:11:09.904Z,2.94
2018-01-21T05:12:09.994Z,2.94
2018-01-21T05:13:09.945Z,3
2018-01-21T05:14:10.029Z,2.94
2018-01-21T05:15:10.715Z,3
2018-01-21T05:16:09.847Z,2.94
2018-01-21T05:17:10.680Z,3
2018-01-21T05:18:10.209Z,2.94
2018-01-21T05:19:10.300Z,2.94
2018-01-21T05:20:10.187Z,2.94
2018-01-21T05:21:09.996Z,2.94
2018-01-21T05:22:09.914Z,3
2018-01-21T05:23:10.375Z,3
2018-01-21T05:24:10.642Z,3
2018-01-21T05:25:10.687Z,2.94
2018-01-21T05:26:10.680Z,3
2018-01-21T05:27:10.982Z,3
2018-01-21T05:28:10.140Z,3
2018-01-21T05:29:10.877Z,2.94
2018-01-21T05:30:10.517Z,3
2018-01-21T05:31:11.256Z,3
2018-01-21T05:32:11.329Z,3
2018-01-21T05:33:09.977Z,3
2018-01-21T05:34:10.075Z,3.06
2018-01-21T05:35:09.986Z,3
2018-01-21T05:36:10.328Z,3
2018-01-21T05:37:10.077Z,3
2018-01-21T05:38:10.594Z,2.94
2018-01-21T05:39:11.551Z,3
2018-01-21T05:40:10.068Z,2.94
2018-01-21T05:41:09.959Z,3
2018-01-21T05:42:10.350Z,3
2018-01-21T05:43:09.872Z,3
2018-01-21T05:44:14.835Z,3
2018-01-21T05:45:10.955Z,3
2018-01-21T05:46:10.382Z,3
2018-01-21T05:47:09.982Z,3
2018-01-21T05:48:09.936Z,3
2018-01-21T05:52:10.036Z,3.06
2018-01-21T05:53:10.021Z,3
2018-01-21T05:54:10.052Z,3.06
2018-01-21T05:55:09.888Z,3.06
2018-01-21T05:56:10.549Z,3.06
2018-01-21T05:57:12.979Z,3.06
2018-01-21T05:58:09.832Z,3.06
2018-01-21T05:59:10.115Z,3.06
2018-01-21T06:01:22.023Z,3.06
2018-01-21T06:02:11.101Z,3.06
2018-01-21T06:03:12.793Z,3.06
2018-01-21T06:04:11.282Z,3.06
2018-01-21T06:05:10.620Z,3.06
2018-01-21T06:06:11.325Z,3.06
2018-01-21T06:07:11.442Z,3.06
2018-01-21T06:08:10.465Z,3.06
2018-01-21T06:09:11.378Z,3.06
2018-01-21T06:10:11.573Z,3.06
2018-01-21T06:11:12.589Z,3.06
2018-01-21T06:12:10.790Z,3.06
2018-01-21T06:13:11.864Z,3.06
2018-01-21T06:14:11.164Z,3.06
2018-01-21T06:15:10.575Z,3.06
2018-01-21T06:16:11.651Z,3.06
2018-01-21T06:17:11.158Z,3.06
2018-01-21T06:18:10.610Z,3
2018-01-21T06:19:10.548Z,3.06
2018-01-21T06:20:13.693Z,3.06
2018-01-21T06:21:10.598Z,3.06
2018-01-21T06:22:13.177Z,3.06
2018-01-21T06:23:10.503Z,3
2018-01-21T06:24:11.589Z,3.06
2018-01-21T06:25:11.944Z,3.06
2018-01-21T06:26:10.526Z,3.06
2018-01-21T06:27:12.184Z,3
2018-01-21T06:28:11.120Z,3
2018-01-21T06:29:10.703Z,3
2018-01-21T06:30:11.441Z,3
2018-01-21T06:31:11.257Z,3
2018-01-21T06:32:11.276Z,3
2018-01-21T06:33:10.845Z,3
2018-01-21T06:34:10.722Z,3
2018-01-21T06:35:11.647Z,3
2018-01-21T06:36:11.399Z,3.06
2018-01-21T06:37:11.159Z,3.06
2018-01-21T06:38:10.567Z,3
2018-01-21T06:39:11.437Z,3.06
2018-01-21T06:40:10.739Z,3
2018-01-21T06:41:11.256Z,3.06
2018-01-21T06:42:10.680Z,3
2018-01-21T06:43:10.521Z,3.06
2018-01-21T06:44:10.912Z,3
2018-01-21T06:45:12.731Z,3
2018-01-21T06:46:11.011Z,3
2018-01-21T06:47:10.697Z,3.06
2018-01-21T06:48:10.852Z,3.06
2018-01-21T06:49:10.495Z,3.06
2018-01-21T06:50:10.529Z,3
2018-01-21T06:51:10.983Z,3.06
2018-01-21T06:55:10.511Z,3
2018-01-21T06:56:10.508Z,3.06
2018-01-21T06:57:10.486Z,3
2018-01-21T06:58:10.428Z,3
2018-01-21T06:59:10.438Z,3
2018-01-21T07:00:10.956Z,3
2018-01-21T07:01:11.168Z,3
2018-01-21T07:02:10.680Z,3
2018-01-21T07:03:10.687Z,3
2018-01-21T07:04:10.716Z,3.06
2018-01-21T07:05:10.646Z,3
2018-01-21T07:06:10.551Z,3.06
2018-01-21T07:07:10.698Z,3.06
2018-01-21T07:08:10.590Z,3.06
2018-01-21T07:09:10.612Z,3.06
2018-01-21T07:10:10.699Z,3.06
2018-01-21T07:11:10.511Z,3.12
2018-01-21T07:12:10.561Z,3.06
2018-01-21T07:13:10.423Z,3.12
2018-01-21T07:16:12.317Z,3.12
2018-01-21T07:17:10.764Z,3.12
2018-01-21T07:18:10.532Z,3.12
2018-01-21T07:20:39.623Z,3.12
2018-01-21T07:21:11.362Z,3.12
2018-01-21T07:22:10.517Z,3.12
2018-01-21T07:23:10.410Z,3.12
2018-01-21T07:24:10.724Z,3.12
2018-01-21T07:25:10.801Z,3.12
2018-01-21T07:26:10.474Z,3.12
2018-01-21T07:27:10.573Z,3.12
2018-01-21T07:28:10.437Z,3.19
2018-01-21T07:29:14.093Z,3.12
2018-01-21T07:30:10.911Z,3.12
2018-01-21T07:31:12.258Z,3.12
2018-01-21T07:32:10.628Z,3.12
2018-01-21T07:34:10.929Z,3.12
2018-01-21T07:35:10.948Z,3.12
2018-01-21T07:36:18.168Z,3.12
2018-01-21T07:37:10.711Z,3.12
2018-01-21T07:38:10.328Z,3.12
2018-01-21T07:40:10.430Z,3.12
2018-01-21T07:41:11.035Z,3.12
2018-01-21T07:42:10.463Z,3.12
2018-01-21T07:43:10.497Z,3.19
2018-01-21T07:44:10.376Z,3.12
2018-01-21T07:45:10.719Z,3.12
2018-01-21T07:46:10.654Z,3.19
2018-01-21T07:47:11.186Z,3.19
2018-01-21T07:48:10.726Z,3.19
2018-01-21T07:49:10.680Z,3.19
2018-01-21T07:50:10.593Z,3.19
2018-01-21T07:51:10.677Z,3.19
2018-01-21T07:52:10.627Z,3.19
2018-01-21T07:53:10.720Z,3.19
2018-01-21T07:54:10.746Z,3.12
2018-01-21T07:55:10.638Z,3.19
2018-01-21T07:56:10.748Z,3.19
2018-01-21T07:57:10.782Z,3.19
2018-01-21T07:58:10.381Z,3.19
2018-01-21T07:59:10.692Z,3.19
2018-01-21T08:00:11.710Z,3.19
2018-01-21T08:01:10.510Z,3.19
2018-01-21T08:02:10.682Z,3.19
2018-01-21T08:03:10.679Z,3.19
2018-01-21T08:04:10.694Z,3.12
2018-01-21T08:05:10.792Z,3.12
2018-01-21T08:06:10.851Z,3.12
2018-01-21T08:07:10.730Z,3.12
2018-01-21T08:08:10.816Z,3.19
2018-01-21T08:09:10.628Z,3.12
2018-01-21T08:10:10.654Z,3.12
2018-01-21T08:11:10.822Z,3.12
2018-01-21T08:12:10.624Z,3.06
2018-01-21T08:13:10.728Z,3.06
2018-01-21T08:14:10.490Z,3.06
2018-01-21T08:15:10.749Z,3.06
2018-01-21T08:16:10.778Z,3.06
2018-01-21T08:17:10.877Z,3.12
2018-01-21T08:18:10.819Z,3.06
2018-01-21T08:19:10.951Z,3.12
2018-01-21T08:20:10.662Z,3.12
2018-01-21T08:21:10.873Z,3.12
2018-01-21T08:23:16.689Z,3.12
2018-01-21T08:24:11.703Z,3.12
2018-01-21T08:25:10.981Z,3.12
2018-01-21T08:26:10.516Z,3.12
2018-01-21T08:27:10.565Z,3.12
2018-01-21T08:28:10.839Z,3.12
2018-01-21T08:29:10.790Z,3.12
2018-01-21T08:30:11.191Z,3.12
2018-01-21T08:31:10.768Z,3.19
2018-01-21T08:32:10.765Z,3.19
2018-01-21T08:33:10.709Z,3.12
2018-01-21T08:34:11.975Z,3.19
2018-01-21T08:35:10.886Z,3.19
2018-01-21T08:37:10.782Z,3.19
2018-01-21T08:38:10.889Z,3.19
2018-01-21T08:39:11.124Z,3.19
2018-01-21T08:40:10.741Z,3.19
2018-01-21T08:44:10.630Z,3.19
2018-01-21T08:45:10.654Z,3.19
2018-01-21T08:46:10.733Z,3.19
2018-01-21T08:47:10.866Z,3.25
2018-01-21T08:48:10.532Z,3.19
2018-01-21T08:49:10.704Z,3.25
2018-01-21T08:50:10.723Z,3.25
2018-01-21T08:51:10.910Z,3.25
2018-01-21T08:52:10.719Z,3.25
2018-01-21T08:53:10.844Z,3.25
2018-01-21T08:54:10.760Z,3.19
2018-01-21T08:55:10.890Z,3.25
2018-01-21T08:56:11.852Z,3.25
2018-01-21T08:57:11.493Z,3.25
2018-01-21T08:58:12.512Z,3.25
2018-01-21T08:59:11.514Z,3.25
2018-01-21T09:00:12.834Z,3.25
2018-01-21T09:01:10.826Z,3.25
2018-01-21T09:02:10.686Z,3.25
2018-01-21T09:03:10.616Z,3.25
2018-01-21T09:04:10.781Z,3.25
2018-01-21T09:05:10.690Z,3.25
2018-01-21T09:06:10.632Z,3.31
2018-01-21T09:07:10.956Z,3.25
2018-01-21T09:08:10.657Z,3.31
2018-01-21T09:09:10.780Z,3.25
2018-01-21T09:10:11.074Z,3.31
2018-01-21T09:11:10.852Z,3.31
2018-01-21T09:12:10.794Z,3.31
2018-01-21T09:13:10.768Z,3.31
2018-01-21T09:14:10.723Z,3.31
2018-01-21T09:15:10.688Z,3.31
2018-01-21T09:16:10.826Z,3.31
2018-01-21T09:17:10.778Z,3.31
2018-01-21T09:18:10.726Z,3.31
2018-01-21T09:19:10.845Z,3.31
2018-01-21T09:20:10.719Z,3.31
2018-01-21T09:21:10.717Z,3.37
2018-01-21T09:22:10.863Z,3.37
2018-01-21T09:23:10.808Z,3.37
2018-01-21T09:24:11.109Z,3.37
2018-01-21T09:25:10.571Z,3.37
2018-01-21T09:26:11.407Z,3.37
2018-01-21T09:27:10.724Z,3.37
2018-01-21T09:28:10.676Z,3.37
2018-01-21T09:29:10.706Z,3.37
2018-01-21T09:30:10.792Z,3.37
2018-01-21T09:31:10.605Z,3.37
2018-01-21T09:32:11.054Z,3.44
2018-01-21T09:33:10.642Z,3.37
2018-01-21T09:34:10.707Z,3.44
2018-01-21T09:35:10.751Z,3.44
2018-01-21T09:36:10.719Z,3.44
2018-01-21T09:37:10.621Z,3.44
2018-01-21T09:38:10.781Z,3.5
2018-01-21T09:39:10.725Z,3.5
2018-01-21T09:40:10.809Z,3.5
2018-01-21T09:41:10.886Z,3.5
2018-01-21T09:42:10.733Z,3.5
2018-01-21T09:43:10.725Z,3.5
2018-01-21T09:44:10.726Z,3.5
2018-01-21T09:45:11.125Z,3.5
2018-01-21T09:46:10.997Z,3.5
2018-01-21T09:47:10.873Z,3.5
2018-01-21T09:48:10.879Z,3.5
2018-01-21T09:49:10.836Z,3.5
2018-01-21T09:50:11.108Z,3.44
2018-01-21T09:51:10.917Z,3.5
2018-01-21T09:52:11.010Z,3.56
2018-01-21T09:53:10.994Z,3.56
2018-01-21T09:54:10.877Z,3.56
2018-01-21T09:55:11.817Z,3.56
2018-01-21T09:58:17.739Z,3.62
2018-01-21T09:59:10.986Z,3.69
2018-01-21T10:00:10.905Z,3.75
2018-01-21T10:01:10.743Z,3.75
2018-01-21T10:02:11.539Z,3.87
2018-01-21T10:03:10.858Z,3.87
2018-01-21T10:04:10.681Z,3.94
2018-01-21T10:05:10.858Z,3.94
2018-01-21T10:06:10.846Z,3.87
2018-01-21T10:07:10.739Z,3.94
2018-01-21T10:08:10.735Z,3.94
2018-01-21T10:09:10.876Z,3.94
2018-01-21T10:14:11.139Z,3.94
2018-01-21T10:15:11.175Z,3.94
2018-01-21T10:16:10.783Z,3.94
2018-01-21T10:17:10.810Z,3.94
2018-01-21T10:18:11.018Z,3.94
2018-01-21T10:19:11.868Z,4
2018-01-21T10:20:10.984Z,3.87
2018-01-21T10:21:10.824Z,3.94
2018-01-21T10:22:11.337Z,3.94
2018-01-21T10:23:10.890Z,3.94
2018-01-21T10:24:12.386Z,3.94
2018-01-21T10:25:10.873Z,3.94
2018-01-21T10:26:11.099Z,3.94
2018-01-21T10:27:12.197Z,3.94
2018-01-21T10:28:11.677Z,3.94
2018-01-21T10:29:10.887Z,4
2018-01-21T10:30:11.067Z,3.94
2018-01-21T10:31:10.937Z,3.94
2018-01-21T10:32:10.921Z,4
2018-01-21T10:33:10.877Z,4
2018-01-21T10:34:10.951Z,4.06
2018-01-21T10:35:10.940Z,4.06
2018-01-21T10:36:11.869Z,4
2018-01-21T10:37:11.056Z,4.19
2018-01-21T10:38:10.948Z,4.19
2018-01-21T10:39:10.897Z,4.25
2018-01-21T10:40:10.941Z,4.25
2018-01-21T10:41:10.972Z,4.31
2018-01-21T10:42:10.971Z,4.37
2018-01-21T10:43:11.172Z,4.44
2018-01-21T10:44:10.767Z,4.44
2018-01-21T10:45:11.480Z,4.5
2018-01-21T10:46:11.790Z,4.56
2018-01-21T10:47:10.889Z,4.56
2018-01-21T10:48:11.432Z,4.69
2018-01-21T10:49:11.812Z,4.69
2018-01-21T10:50:11.949Z,4.81
2018-01-21T10:51:11.505Z,4.75
2018-01-21T10:52:11.759Z,4.75
2018-01-21T10:53:10.967Z,4.75
2018-01-21T10:54:12.591Z,4.69
2018-01-21T10:55:11.459Z,4.62
2018-01-21T10:56:11.673Z,4.69
2018-01-21T10:57:11.288Z,4.75
2018-01-21T10:58:12.596Z,4.69
2018-01-21T10:59:12.909Z,4.62
2018-01-21T11:00:11.649Z,4.62
2018-01-21T11:01:10.899Z,4.56
2018-01-21T11:02:11.990Z,4.56
2018-01-21T11:03:09.992Z,4.56
2018-01-21T11:04:10.528Z,4.56
2018-01-21T11:05:09.919Z,4.62
2018-01-21T11:06:11.397Z,4.56
2018-01-21T11:07:12.937Z,4.56
2018-01-21T11:08:10.257Z,4.56
2018-01-21T11:09:10.004Z,4.56
2018-01-21T11:10:09.882Z,4.56
2018-01-21T11:11:10.363Z,4.56
2018-01-21T11:12:12.485Z,4.56
2018-01-21T11:13:12.746Z,4.56
2018-01-21T11:14:31.226Z,4.56
2018-01-21T11:15:12.109Z,4.56
2018-01-21T11:16:16.053Z,4.56
2018-01-21T11:17:11.248Z,4.5
2018-01-21T11:18:12.619Z,4.56
2018-01-21T11:19:15.156Z,4.56
2018-01-21T11:20:11.203Z,4.56
2018-01-21T11:21:36.467Z,4.5
2018-01-21T11:22:33.412Z,4.56
2018-01-21T11:23:30.943Z,4.56
2018-01-21T11:24:11.497Z,4.56
2018-01-21T11:25:11.172Z,4.56
2018-01-21T11:26:13.940Z,4.5
2018-01-21T11:27:11.945Z,4.56
2018-01-21T11:28:11.405Z,4.5
2018-01-21T11:29:13.364Z,4.5
2018-01-21T11:30:12.572Z,4.56
2018-01-21T11:31:11.438Z,4.5
2018-01-21T11:32:11.445Z,4.56
2018-01-21T11:33:17.905Z,4.56
2018-01-21T11:34:10.077Z,4.5
2018-01-21T11:35:09.757Z,4.56
2018-01-21T11:36:12.356Z,4.56
2018-01-21T11:37:10.734Z,4.56
2018-01-21T11:38:11.025Z,4.56
2018-01-21T11:39:10.831Z,4.56
2018-01-21T11:40:12.868Z,4.56
2018-01-21T11:41:10.469Z,4.56
2018-01-21T11:42:10.513Z,4.56
2018-01-21T11:45:22.543Z,4.5
2018-01-21T11:46:12.705Z,4.56
2018-01-21T11:47:10.824Z,4.56
2018-01-21T11:49:21.982Z,4.5
2018-01-21T11:50:10.949Z,4.5
2018-01-21T11:51:11.357Z,4.5
2018-01-21T11:52:11.920Z,4.5
2018-01-21T11:53:09.857Z,4.5
2018-01-21T11:54:13.518Z,4.5
2018-01-21T11:55:12.646Z,4.56
2018-01-21T11:56:11.140Z,4.5
2018-01-21T11:57:11.595Z,4.56
2018-01-21T11:58:11.154Z,4.5
2018-01-21T11:59:11.350Z,4.5
2018-01-21T12:00:11.179Z,4.5
2018-01-21T12:01:10.029Z,4.5
2018-01-21T12:02:11.591Z,4.5
2018-01-21T12:03:12.552Z,4.56
2018-01-21T12:04:12.687Z,4.56
2018-01-21T12:05:10.728Z,4.56
2018-01-21T12:06:10.132Z,4.62
2018-01-21T12:07:10.957Z,4.56
2018-01-21T12:08:12.877Z,4.62
2018-01-21T12:09:10.729Z,4.56
2018-01-21T12:10:12.189Z,4.62
2018-01-21T12:11:10.145Z,4.62
2018-01-21T12:12:12.961Z,4.62
2018-01-21T12:13:11.383Z,4.62
2018-01-21T12:14:10.644Z,4.69
2018-01-21T12:15:10.862Z,4.62
2018-01-21T12:16:11.441Z,4.69
2018-01-21T12:17:11.988Z,4.69
2018-01-21T12:18:15.519Z,4.69
2018-01-21T12:19:11.875Z,4.69
2018-01-21T12:20:11.479Z,4.69
2018-01-21T12:21:13.511Z,4.62
2018-01-21T12:22:14.191Z,4.62
2018-01-21T12:23:11.385Z,4.62
2018-01-21T12:24:10.753Z,4.62
2018-01-21T12:25:11.485Z,4.62
2018-01-21T12:26:11.085Z,4.69
2018-01-21T12:27:13.259Z,4.62
2018-01-21T12:28:10.056Z,4.69
2018-01-21T12:29:11.074Z,4.62
2018-01-21T12:30:10.089Z,4.62
2018-01-21T12:31:15.112Z,4.62
2018-01-21T12:32:14.142Z,4.62
2018-01-21T12:33:10.739Z,4.62
2018-01-21T12:34:11.833Z,4.62
2018-01-21T12:35:11.217Z,4.69
2018-01-21T12:36:10.640Z,4.69
2018-01-21T12:37:11.424Z,4.62
2018-01-21T12:38:10.094Z,4.62
2018-01-21T12:39:10.790Z,4.62
2018-01-21T12:40:12.129Z,4.69
2018-01-21T12:41:09.811Z,4.62
2018-01-21T12:42:12.011Z,4.69
2018-01-21T12:43:10.522Z,4.69
2018-01-21T12:44:10.844Z,4.69
2018-01-21T12:45:10.809Z,4.69
2018-01-21T12:46:12.397Z,4.69
2018-01-21T12:47:11.493Z,4.69
2018-01-21T12:48:10.202Z,4.62
2018-01-21T12:49:10.188Z,4.62
2018-01-21T12:50:10.554Z,4.62
2018-01-21T12:51:11.760Z,4.56
2018-01-21T12:52:11.283Z,4.56
2018-01-21T12:53:11.420Z,4.56
2018-01-21T12:54:11.266Z,4.62
2018-01-21T12:55:09.899Z,4.56
2018-01-21T12:56:10.690Z,4.62
2018-01-21T12:57:11.345Z,4.62
2018-01-21T12:58:11.175Z,4.62
2018-01-21T12:59:12.647Z,4.56
2018-01-21T13:00:10.007Z,4.62
2018-01-21T13:01:10.665Z,4.62
2018-01-21T13:02:14.125Z,4.62
2018-01-21T13:03:10.525Z,4.56
2018-01-21T13:04:11.357Z,4.56
2018-01-21T13:05:11.013Z,4.62
2018-01-21T13:06:12.303Z,4.56
2018-01-21T13:07:10.056Z,4.56
2018-01-21T13:08:11.873Z,4.56
2018-01-21T13:09:12.230Z,4.56
2018-01-21T13:10:12.545Z,4.5
2018-01-21T13:11:12.622Z,4.5
2018-01-21T13:12:10.797Z,4.37
2018-01-21T13:13:11.531Z,4.31
2018-01-21T13:14:12.130Z,4.31
2018-01-21T13:15:12.697Z,4.25
2018-01-21T13:16:10.441Z,4.31
2018-01-21T13:17:09.906Z,4.31
2018-01-21T13:18:11.818Z,4.25
2018-01-21T13:19:10.562Z,4.25
2018-01-21T13:20:10.665Z,4.25
2018-01-21T13:21:10.834Z,4.19
2018-01-21T13:22:10.662Z,4.19
2018-01-21T13:23:11.843Z,4.19
2018-01-21T13:24:11.429Z,4.25
2018-01-21T13:25:10.047Z,4.19
2018-01-21T13:26:10.801Z,4.19
2018-01-21T13:27:10.775Z,4.25
2018-01-21T13:28:11.380Z,4.25
2018-01-21T13:29:10.579Z,4.25
2018-01-21T13:30:10.045Z,4.31
2018-01-21T13:31:10.955Z,4.25
2018-01-21T13:32:11.827Z,4.31
2018-01-21T13:33:10.775Z,4.31
2018-01-21T13:34:11.304Z,4.31
2018-01-21T13:35:11.938Z,4.37
2018-01-21T13:36:12.609Z,4.31
2018-01-21T13:37:10.291Z,4.37
2018-01-21T13:38:10.119Z,4.37
2018-01-21T13:39:10.080Z,4.44
2018-01-21T13:40:10.770Z,4.44
2018-01-21T13:41:11.480Z,4.44
2018-01-21T13:42:13.523Z,4.5
2018-01-21T13:43:12.243Z,4.44
2018-01-21T13:44:10.567Z,4.5
2018-01-21T13:45:10.666Z,4.5
2018-01-21T13:46:12.015Z,4.5
2018-01-21T13:47:11.874Z,4.5
2018-01-21T13:48:10.816Z,4.56
2018-01-21T13:49:10.942Z,4.56
2018-01-21T13:50:10.392Z,4.5
2018-01-21T13:51:10.800Z,4.56
2018-01-21T13:52:12.465Z,4.5
2018-01-21T13:53:12.931Z,4.56
2018-01-21T13:54:10.103Z,4.56
2018-01-21T13:55:10.572Z,4.62
2018-01-21T13:56:11.276Z,4.62
2018-01-21T13:57:11.341Z,4.69
2018-01-21T13:58:11.357Z,4.62
2018-01-21T13:59:10.884Z,4.69
2018-01-21T14:00:10.318Z,4.69
2018-01-21T14:01:13.054Z,4.69
2018-01-21T14:02:10.712Z,4.69
2018-01-21T14:03:11.598Z,4.75
2018-01-21T14:04:12.179Z,4.75
2018-01-21T14:05:11.058Z,4.75
2018-01-21T14:06:13.824Z,4.81
2018-01-21T14:07:11.654Z,4.81
2018-01-21T14:08:12.029Z,4.81
2018-01-21T14:09:12.601Z,4.81
2018-01-21T14:10:11.195Z,4.87
2018-01-21T14:11:12.215Z,4.87
2018-01-21T14:12:11.491Z,4.87
2018-01-21T14:13:11.881Z,4.87
2018-01-21T14:14:11.589Z,4.87
2018-01-21T14:15:10.731Z,4.87
2018-01-21T14:16:11.699Z,4.87
2018-01-21T14:17:10.478Z,4.87